El Sobrante Hills, CA

3:07 PM PDT on March 24, 2017 (GMT -0700)
Pinole Valley - Inland | | Change Station

Elev 262 ft 37.98 °N, 122.26 °W | Updated 2 seconds ago

Overcast
Overcast
53.6 °F
Feels Like 53.6 °F
N
1.0
Wind Variable Wind from SE
Gusts 5.0 mph

Today
High -- | Low -- °F
--% Chance of Precip.
Yesterday
High -- | Low -- °F
Precip. -- in
Pressure 30.18 in
Visibility 2.5 miles
Clouds Few 900 ft
Mostly Cloudy 3500 ft
Overcast 3700 ft
Dew Point 51 °F
Humidity 92%
Rainfall 0.38 in
Snow Depth Not available.
7:05 AM 7:25 PM
Waning Crescent, 12% visible
SPECI KCCR 242155Z 19008G16KT 2 1/2SM -RA BR FEW009 BKN035 OVC037 13/12 A3018 RMK AO2 P0000 T01330122
Pressure 30.18 in
Visibility 2.5 miles
Clouds Few 900 ft
Mostly Cloudy 3500 ft
Overcast 3700 ft
Dew Point 51 °F
Humidity 92%
Rainfall 0.38 in
Snow Depth Not available.
7:05 AM 7:25 PM
Waning Crescent, 12% visible
SPECI KCCR 242155Z 19008G16KT 2 1/2SM -RA BR FEW009 BKN035 OVC037 13/12 A3018 RMK AO2 P0000 T01330122

Get Severe Weather Alerts

Thanks for signing up!

Be on the lookout for a verification email in your inbox.

You'll start receiving the daily forecast at 8 AM.

×

10-Day Weather Forecast

Almanac

Astronomy

Mar. 24, 2017 Rise Set
Actual Time
Civil Twilight
Nautical Twilight
Astronomical Twilight
Moon
Length of Visible Light
Length of Day
Tomorrow will be .
, % of the Moon is Illuminated

Today's Extremes

State Highs State Lows

Community

WunderPhotos

Upload Photos

1,962,540 photos uploaded!

WunderBlog® & News

Nearby

Air Quality

  Air Quality AQ Index Pollutant
Not available.

Snow Depth

Station Depth Elevation

Earthquake Activity

City Distance Mag. Time & Date
Minimum magnitude displayed is 2.5.

Earthquake Activity

City Distance Mag. Time & Date
Minimum magnitude displayed is 2.5.

Coastal Water Temperatures

Place Temperature

Stations

Nearby Weather Stations

Station Location Temp. Windchill Dew Point Humidity Wind Precip. Elev Updated Type
                   

Watches & Warnings

There are currently no watches in effect.